BAW74G EGSS-UGTB
Flight info
| Callsign | BAW74G |
|---|---|
| Flight time | 4h 29m |
| Altitude | 37000 |
| Route | CLN P44 RATLO M197 REDFA L620 TACHA DCT RENDI DCT GMH DCT GASKA DCT LULAR DCT RUDAP DCT BUDEX DCT PESAT DCT OGVUN DCT EBORO DCT INVED DCT VEVIN/N0439F390 DCT DINRO N743 UDROS UM859 KARDE UN644 ROLIN N644 LAGAS |
| Aircraft | A20N/M-SDE2E3FGHIRWXY/LB1 |
Departure
| Time | 2026-04-15 13:13 |
|---|---|
| Airport | London Stansted Airport (EGSS) |
Arrival
| Time | 2026-04-15 17:42 |
|---|---|
| Airport | Tbilisi International Airport (UGTB) |
| Time | Latitude | Longitude | Altitude | Speed | Heading |
|---|---|---|---|---|---|
| 2026-04-15 12:48 | 51.89241 | 0.25960 | 355 ft | 0 kts | 43° |
| 2026-04-15 13:05 | 51.89239 | 0.25958 | 375 ft | 1 kts | 43° |
| 2026-04-15 13:05 | 51.89234 | 0.25949 | 358 ft | 1 kts | 43° |
| 2026-04-15 13:05 | 51.89228 | 0.25940 | 357 ft | 1 kts | 43° |
| 2026-04-15 13:05 | 51.89222 | 0.25932 | 357 ft | 1 kts | 32° |
| 2026-04-15 13:06 | 51.89216 | 0.25925 | 351 ft | 1 kts | 18° |
| 2026-04-15 13:06 | 51.89208 | 0.25922 | 351 ft | 1 kts | 3° |
| 2026-04-15 13:06 | 51.89201 | 0.25922 | 357 ft | 1 kts | 348° |
| 2026-04-15 13:06 | 51.89193 | 0.25925 | 356 ft | 1 kts | 333° |
| 2026-04-15 13:07 | 51.89186 | 0.25930 | 350 ft | 1 kts | 316° |
| 2026-04-15 13:07 | 51.89184 | 0.25933 | 355 ft | 0 kts | 309° |
| 2026-04-15 13:08 | 51.89188 | 0.25926 | 352 ft | 3 kts | 309° |
| 2026-04-15 13:09 | 51.89208 | 0.25887 | 350 ft | 6 kts | 313° |
| 2026-04-15 13:09 | 51.89245 | 0.25825 | 350 ft | 9 kts | 314° |
| 2026-04-15 13:09 | 51.89296 | 0.25740 | 345 ft | 12 kts | 313° |
| 2026-04-15 13:09 | 51.89358 | 0.25629 | 347 ft | 15 kts | 310° |
| 2026-04-15 13:10 | 51.89406 | 0.25502 | 349 ft | 14 kts | 306° |
| 2026-04-15 13:10 | 51.89412 | 0.25377 | 345 ft | 11 kts | 272° |
| 2026-04-15 13:10 | 51.89459 | 0.25274 | 343 ft | 12 kts | 313° |
| 2026-04-15 13:10 | 51.89490 | 0.25199 | 349 ft | 0 kts | 289° |
| 2026-04-15 13:11 | 51.89494 | 0.25159 | 349 ft | 9 kts | 275° |
| 2026-04-15 13:11 | 51.89493 | 0.25027 | 336 ft | 15 kts | 269° |
| 2026-04-15 13:12 | 51.89469 | 0.24934 | 335 ft | 9 kts | 224° |
| 2026-04-15 13:12 | 51.89335 | 0.24736 | 332 ft | 57 kts | 221° |
| 2026-04-15 13:12 | 51.88892 | 0.24071 | 337 ft | 114 kts | 222° |
| 2026-04-15 13:12 | 51.88199 | 0.23012 | 371 ft | 156 kts | 221° |
| 2026-04-15 13:13 | 51.87396 | 0.21779 | 952 ft | 152 kts | 219° |
| 2026-04-15 13:13 | 51.86647 | 0.20657 | 1886 ft | 141 kts | 219° |
| 2026-04-15 13:13 | 51.85897 | 0.19625 | 2402 ft | 151 kts | 211° |
| 2026-04-15 13:13 | 51.84856 | 0.19026 | 2735 ft | 171 kts | 189° |
| 2026-04-15 13:14 | 51.83609 | 0.19298 | 3172 ft | 195 kts | 163° |
| 2026-04-15 13:14 | 51.82470 | 0.20740 | 3725 ft | 219 kts | 135° |
| 2026-04-15 13:14 | 51.81702 | 0.22879 | 3919 ft | 227 kts | 117° |
| 2026-04-15 13:14 | 51.81358 | 0.25421 | 3972 ft | 237 kts | 98° |
| 2026-04-15 13:15 | 51.81454 | 0.28140 | 3982 ft | 254 kts | 91° |
| 2026-04-15 13:15 | 51.81598 | 0.31168 | 3974 ft | 280 kts | 91° |
| 2026-04-15 13:15 | 51.81740 | 0.34313 | 3975 ft | 281 kts | 91° |
| 2026-04-15 13:15 | 51.81879 | 0.37477 | 3971 ft | 282 kts | 91° |
| 2026-04-15 13:16 | 51.82014 | 0.40634 | 3975 ft | 282 kts | 91° |
| 2026-04-15 13:16 | 51.82146 | 0.43795 | 3973 ft | 282 kts | 91° |
| 2026-04-15 13:16 | 51.82275 | 0.46954 | 3975 ft | 282 kts | 91° |
| 2026-04-15 13:16 | 51.82402 | 0.50117 | 3967 ft | 281 kts | 91° |
| 2026-04-15 13:17 | 51.82529 | 0.53272 | 3974 ft | 281 kts | 91° |
| 2026-04-15 13:17 | 51.82655 | 0.56429 | 3973 ft | 282 kts | 91° |
| 2026-04-15 13:17 | 51.82782 | 0.59616 | 3986 ft | 285 kts | 92° |
| 2026-04-15 13:17 | 51.82908 | 0.62826 | 4255 ft | 288 kts | 92° |
| 2026-04-15 13:18 | 51.83035 | 0.66060 | 5103 ft | 286 kts | 91° |
| 2026-04-15 13:18 | 51.83162 | 0.69247 | 6090 ft | 285 kts | 92° |
| 2026-04-15 13:18 | 51.83287 | 0.72468 | 6895 ft | 289 kts | 92° |
| 2026-04-15 13:18 | 51.83410 | 0.75729 | 7748 ft | 294 kts | 91° |
| 2026-04-15 13:19 | 51.83536 | 0.79049 | 8591 ft | 296 kts | 92° |
| 2026-04-15 13:19 | 51.83663 | 0.82398 | 9400 ft | 301 kts | 91° |
| 2026-04-15 13:19 | 51.83791 | 0.85794 | 10163 ft | 305 kts | 91° |
| 2026-04-15 13:19 | 51.83921 | 0.89301 | 10554 ft | 323 kts | 91° |
| 2026-04-15 13:20 | 51.84055 | 0.93059 | 10784 ft | 345 kts | 91° |
| 2026-04-15 13:20 | 51.84199 | 0.97009 | 11243 ft | 356 kts | 91° |
| 2026-04-15 13:20 | 51.84350 | 1.01030 | 11940 ft | 360 kts | 91° |
| 2026-04-15 13:20 | 51.84503 | 1.05083 | 12690 ft | 363 kts | 91° |
| 2026-04-15 13:21 | 51.84654 | 1.09165 | 13449 ft | 365 kts | 91° |
| 2026-04-15 13:21 | 51.84924 | 1.13276 | 14112 ft | 372 kts | 84° |
| 2026-04-15 13:21 | 51.85589 | 1.17364 | 14713 ft | 381 kts | 74° |
| 2026-04-15 13:21 | 51.86623 | 1.21359 | 15293 ft | 387 kts | 70° |
| 2026-04-15 13:22 | 51.87718 | 1.25369 | 15879 ft | 392 kts | 70° |
| 2026-04-15 13:22 | 51.88802 | 1.29379 | 16462 ft | 396 kts | 70° |
| 2026-04-15 13:22 | 51.89908 | 1.33493 | 17040 ft | 400 kts | 70° |
| 2026-04-15 13:22 | 51.91022 | 1.37648 | 17614 ft | 405 kts | 70° |
| 2026-04-15 13:23 | 51.92162 | 1.41910 | 18189 ft | 409 kts | 70° |
| 2026-04-15 13:23 | 51.93297 | 1.46160 | 18709 ft | 413 kts | 70° |
| 2026-04-15 13:23 | 51.94424 | 1.50390 | 19187 ft | 416 kts | 70° |
| 2026-04-15 13:23 | 51.95574 | 1.54709 | 19708 ft | 419 kts | 70° |
| 2026-04-15 13:24 | 51.96729 | 1.59055 | 20212 ft | 422 kts | 70° |
| 2026-04-15 13:24 | 51.97894 | 1.63446 | 20715 ft | 425 kts | 70° |
| 2026-04-15 13:24 | 51.99018 | 1.67882 | 21214 ft | 426 kts | 75° |
| 2026-04-15 13:24 | 51.99826 | 1.72493 | 21701 ft | 426 kts | 81° |
| 2026-04-15 13:25 | 52.00544 | 1.77174 | 22204 ft | 429 kts | 80° |
| 2026-04-15 13:25 | 52.01277 | 1.81885 | 22696 ft | 432 kts | 80° |
| 2026-04-15 13:25 | 52.02015 | 1.86625 | 23173 ft | 435 kts | 80° |
| 2026-04-15 13:25 | 52.02756 | 1.91400 | 23646 ft | 438 kts | 80° |
| 2026-04-15 13:26 | 52.03498 | 1.96205 | 24042 ft | 440 kts | 80° |
| 2026-04-15 13:26 | 52.04242 | 2.01041 | 24444 ft | 442 kts | 80° |
| 2026-04-15 13:26 | 52.04987 | 2.05904 | 24815 ft | 445 kts | 80° |
| 2026-04-15 13:26 | 52.05735 | 2.10800 | 25175 ft | 448 kts | 80° |
| 2026-04-15 13:27 | 52.06486 | 2.15734 | 25553 ft | 451 kts | 80° |
| 2026-04-15 13:27 | 52.07241 | 2.20700 | 25914 ft | 454 kts | 80° |
| 2026-04-15 13:27 | 52.07998 | 2.25701 | 26259 ft | 457 kts | 81° |
| 2026-04-15 13:27 | 52.08757 | 2.30728 | 26603 ft | 459 kts | 81° |
| 2026-04-15 13:28 | 52.09518 | 2.35786 | 26953 ft | 462 kts | 81° |
| 2026-04-15 13:28 | 52.10282 | 2.40878 | 27280 ft | 464 kts | 81° |
| 2026-04-15 13:28 | 52.11047 | 2.45992 | 27572 ft | 467 kts | 81° |
| 2026-04-15 13:28 | 52.11890 | 2.51112 | 27896 ft | 471 kts | 76° |
| 2026-04-15 13:29 | 52.12867 | 2.56217 | 28204 ft | 474 kts | 76° |
| 2026-04-15 13:29 | 52.13851 | 2.61340 | 28497 ft | 476 kts | 76° |
| 2026-04-15 13:29 | 52.14839 | 2.66501 | 28788 ft | 479 kts | 76° |
| 2026-04-15 13:29 | 52.15828 | 2.71696 | 29075 ft | 481 kts | 77° |
| 2026-04-15 13:30 | 52.16815 | 2.76907 | 29353 ft | 483 kts | 77° |
| 2026-04-15 13:30 | 52.17805 | 2.82157 | 29625 ft | 485 kts | 77° |
| 2026-04-15 13:30 | 52.18795 | 2.87421 | 29887 ft | 488 kts | 77° |
| 2026-04-15 13:30 | 52.19790 | 2.92726 | 30155 ft | 490 kts | 77° |
| 2026-04-15 13:31 | 52.20784 | 2.98045 | 30381 ft | 491 kts | 76° |
| 2026-04-15 13:31 | 52.21778 | 3.03378 | 30645 ft | 492 kts | 76° |
| 2026-04-15 13:31 | 52.22773 | 3.08732 | 30872 ft | 495 kts | 76° |
| 2026-04-15 13:31 | 52.23758 | 3.14046 | 31095 ft | 496 kts | 76° |
| 2026-04-15 13:32 | 52.24668 | 3.19475 | 31391 ft | 494 kts | 82° |
| 2026-04-15 13:32 | 52.25138 | 3.24992 | 31692 ft | 489 kts | 91° |
| 2026-04-15 13:32 | 52.25142 | 3.30516 | 31980 ft | 484 kts | 99° |
| 2026-04-15 13:32 | 52.24776 | 3.35955 | 32269 ft | 482 kts | 102° |
| 2026-04-15 13:33 | 52.24389 | 3.41375 | 32559 ft | 482 kts | 101° |
| 2026-04-15 13:33 | 52.24006 | 3.46806 | 32824 ft | 481 kts | 101° |
| 2026-04-15 13:33 | 52.23621 | 3.52237 | 33041 ft | 482 kts | 101° |
| 2026-04-15 13:33 | 52.23232 | 3.57671 | 33309 ft | 482 kts | 101° |
| 2026-04-15 13:34 | 52.22840 | 3.63100 | 33593 ft | 482 kts | 101° |
| 2026-04-15 13:34 | 52.22445 | 3.68529 | 33825 ft | 482 kts | 101° |
| 2026-04-15 13:34 | 52.22047 | 3.73952 | 34072 ft | 481 kts | 101° |
| 2026-04-15 13:34 | 52.21647 | 3.79371 | 34297 ft | 481 kts | 101° |
| 2026-04-15 13:35 | 52.21245 | 3.84777 | 34525 ft | 480 kts | 101° |
| 2026-04-15 13:35 | 52.20842 | 3.90169 | 34745 ft | 479 kts | 101° |
| 2026-04-15 13:35 | 52.20436 | 3.95555 | 34938 ft | 479 kts | 101° |
| 2026-04-15 13:35 | 52.20026 | 4.00945 | 35091 ft | 479 kts | 101° |
| 2026-04-15 13:36 | 52.19615 | 4.06335 | 35275 ft | 479 kts | 101° |
| 2026-04-15 13:36 | 52.19342 | 4.09905 | 35403 ft | 479 kts | 101° |
| 2026-04-15 13:36 | 52.18927 | 4.15293 | 35600 ft | 478 kts | 101° |
| 2026-04-15 13:36 | 52.18512 | 4.20652 | 35785 ft | 478 kts | 101° |
| 2026-04-15 13:37 | 52.18094 | 4.26024 | 35964 ft | 477 kts | 101° |
| 2026-04-15 13:37 | 52.17674 | 4.31380 | 36139 ft | 476 kts | 101° |
| 2026-04-15 13:37 | 52.17252 | 4.36728 | 36312 ft | 476 kts | 101° |
| 2026-04-15 13:37 | 52.16829 | 4.42065 | 36480 ft | 475 kts | 101° |
| 2026-04-15 13:38 | 52.16402 | 4.47412 | 36632 ft | 475 kts | 101° |
| 2026-04-15 13:38 | 52.15974 | 4.52735 | 36782 ft | 475 kts | 101° |
| 2026-04-15 13:38 | 52.15544 | 4.58062 | 36936 ft | 474 kts | 101° |
| 2026-04-15 13:38 | 52.15112 | 4.63387 | 37073 ft | 474 kts | 101° |
| 2026-04-15 13:39 | 52.14242 | 4.74009 | 37131 ft | 473 kts | 101° |
| 2026-04-15 13:39 | 52.13364 | 4.84610 | 37131 ft | 473 kts | 101° |
| 2026-04-15 13:40 | 52.12473 | 4.95219 | 37137 ft | 474 kts | 101° |
| 2026-04-15 13:40 | 52.11570 | 5.05879 | 37137 ft | 476 kts | 101° |
| 2026-04-15 13:41 | 52.10666 | 5.16451 | 37139 ft | 475 kts | 101° |
| 2026-04-15 13:41 | 52.09747 | 5.27077 | 37138 ft | 474 kts | 101° |
| 2026-04-15 13:42 | 52.08819 | 5.37677 | 37132 ft | 473 kts | 101° |
| 2026-04-15 13:42 | 52.07880 | 5.48274 | 37145 ft | 476 kts | 100° |
| 2026-04-15 13:43 | 52.06917 | 5.58952 | 37143 ft | 477 kts | 102° |
| 2026-04-15 13:43 | 52.05071 | 5.69223 | 37157 ft | 472 kts | 116° |
| 2026-04-15 13:44 | 52.01923 | 5.78479 | 37149 ft | 467 kts | 126° |
| 2026-04-15 13:44 | 51.98461 | 5.87402 | 37159 ft | 467 kts | 126° |
| 2026-04-15 13:45 | 51.94999 | 5.96329 | 37145 ft | 467 kts | 125° |
| 2026-04-15 13:47 | 51.81056 | 6.31910 | 37158 ft | 469 kts | 126° |
| 2026-04-15 13:47 | 51.77540 | 6.40798 | 37138 ft | 470 kts | 125° |
| 2026-04-15 13:48 | 51.74012 | 6.49693 | 37149 ft | 471 kts | 125° |
| 2026-04-15 13:48 | 51.70467 | 6.58599 | 37164 ft | 472 kts | 125° |
| 2026-04-15 13:49 | 51.66910 | 6.67503 | 37169 ft | 473 kts | 125° |
| 2026-04-15 13:49 | 51.63336 | 6.76419 | 37176 ft | 474 kts | 125° |
| 2026-04-15 13:50 | 51.59746 | 6.85338 | 37176 ft | 475 kts | 124° |
| 2026-04-15 13:50 | 51.56144 | 6.94266 | 37181 ft | 476 kts | 124° |
| 2026-04-15 13:51 | 51.52556 | 7.03126 | 37178 ft | 475 kts | 125° |
| 2026-04-15 13:51 | 51.48949 | 7.12000 | 37180 ft | 475 kts | 125° |
| 2026-04-15 13:52 | 51.45332 | 7.20868 | 37187 ft | 475 kts | 125° |
| 2026-04-15 13:52 | 51.41701 | 7.29736 | 37192 ft | 477 kts | 124° |
| 2026-04-15 13:53 | 51.38058 | 7.38611 | 37193 ft | 476 kts | 124° |
| 2026-04-15 13:53 | 51.34418 | 7.47446 | 37194 ft | 475 kts | 124° |
| 2026-04-15 13:54 | 51.30774 | 7.56258 | 37191 ft | 475 kts | 124° |
| 2026-04-15 13:54 | 51.27128 | 7.65046 | 37200 ft | 474 kts | 124° |
| 2026-04-15 13:55 | 51.23474 | 7.73820 | 37180 ft | 474 kts | 124° |
| 2026-04-15 13:55 | 51.19818 | 7.82575 | 37177 ft | 474 kts | 124° |
| 2026-04-15 13:56 | 51.16275 | 7.91432 | 37181 ft | 474 kts | 117° |
| 2026-04-15 13:56 | 51.13230 | 8.00744 | 37185 ft | 475 kts | 117° |
| 2026-04-15 13:57 | 51.10206 | 8.10010 | 37188 ft | 475 kts | 117° |
| 2026-04-15 13:57 | 51.07133 | 8.19333 | 37192 ft | 476 kts | 117° |
| 2026-04-15 13:58 | 51.04041 | 8.28660 | 37200 ft | 477 kts | 117° |
| 2026-04-15 13:58 | 51.00941 | 8.37977 | 37215 ft | 478 kts | 117° |
| 2026-04-15 13:59 | 50.97826 | 8.47301 | 37220 ft | 479 kts | 117° |
| 2026-04-15 13:59 | 50.94695 | 8.56633 | 37222 ft | 480 kts | 117° |
| 2026-04-15 14:00 | 50.91554 | 8.65971 | 37220 ft | 479 kts | 117° |
| 2026-04-15 14:00 | 50.88413 | 8.75272 | 37220 ft | 479 kts | 117° |
| 2026-04-15 14:01 | 50.83687 | 8.89198 | 37212 ft | 479 kts | 117° |
| 2026-04-15 14:02 | 50.80531 | 8.98457 | 37213 ft | 479 kts | 117° |
| 2026-04-15 14:02 | 50.77365 | 9.07710 | 37204 ft | 479 kts | 117° |
| 2026-04-15 14:03 | 50.74190 | 9.16954 | 37205 ft | 479 kts | 117° |
| 2026-04-15 14:03 | 50.71010 | 9.26180 | 37204 ft | 478 kts | 117° |
| 2026-04-15 14:04 | 50.67846 | 9.35327 | 37208 ft | 478 kts | 117° |
| 2026-04-15 14:04 | 50.64650 | 9.44531 | 37202 ft | 479 kts | 117° |
| 2026-04-15 14:05 | 50.61448 | 9.53722 | 37203 ft | 479 kts | 117° |
| 2026-04-15 14:05 | 50.58238 | 9.62904 | 37205 ft | 479 kts | 117° |
| 2026-04-15 14:06 | 50.55021 | 9.72070 | 37206 ft | 479 kts | 117° |
| 2026-04-15 14:06 | 50.51794 | 9.81227 | 37212 ft | 479 kts | 116° |
| 2026-04-15 14:07 | 50.48560 | 9.90376 | 37214 ft | 479 kts | 116° |
| 2026-04-15 14:07 | 50.45319 | 9.99513 | 37212 ft | 479 kts | 117° |
| 2026-04-15 14:08 | 50.42078 | 10.08617 | 37206 ft | 476 kts | 117° |
| 2026-04-15 14:08 | 50.38839 | 10.17683 | 37207 ft | 477 kts | 117° |
| 2026-04-15 14:09 | 50.35594 | 10.26739 | 37202 ft | 476 kts | 117° |
| 2026-04-15 14:09 | 50.32190 | 10.35653 | 37206 ft | 477 kts | 118° |
| 2026-04-15 14:10 | 50.28813 | 10.44584 | 37208 ft | 477 kts | 118° |
| 2026-04-15 14:10 | 50.25421 | 10.53498 | 37204 ft | 477 kts | 118° |
| 2026-04-15 14:11 | 50.22018 | 10.62380 | 37214 ft | 477 kts | 118° |
| 2026-04-15 14:11 | 50.18624 | 10.71197 | 37200 ft | 477 kts | 118° |
| 2026-04-15 14:12 | 50.15208 | 10.80048 | 37201 ft | 476 kts | 118° |
| 2026-04-15 14:12 | 50.11785 | 10.88884 | 37211 ft | 476 kts | 118° |
| 2026-04-15 14:13 | 50.08359 | 10.97698 | 37210 ft | 476 kts | 118° |
| 2026-04-15 14:13 | 50.04925 | 11.06504 | 37220 ft | 476 kts | 117° |
| 2026-04-15 14:14 | 50.01484 | 11.15297 | 37216 ft | 476 kts | 117° |
| 2026-04-15 14:14 | 49.98042 | 11.24065 | 37215 ft | 475 kts | 117° |
| 2026-04-15 14:15 | 49.94595 | 11.32815 | 37213 ft | 475 kts | 118° |
| 2026-04-15 14:15 | 49.91142 | 11.41551 | 37212 ft | 475 kts | 118° |
| 2026-04-15 14:16 | 49.87683 | 11.50274 | 37214 ft | 475 kts | 117° |
| 2026-04-15 14:16 | 49.84221 | 11.58975 | 37205 ft | 474 kts | 117° |
| 2026-04-15 14:17 | 49.80752 | 11.67663 | 37199 ft | 474 kts | 118° |
| 2026-04-15 14:17 | 49.77284 | 11.76322 | 37188 ft | 473 kts | 118° |
| 2026-04-15 14:18 | 49.73836 | 11.84903 | 37184 ft | 473 kts | 117° |
| 2026-04-15 14:18 | 49.70357 | 11.93531 | 37184 ft | 473 kts | 118° |
| 2026-04-15 14:19 | 49.66873 | 12.02145 | 37180 ft | 472 kts | 118° |
| 2026-04-15 14:19 | 49.63387 | 12.10735 | 37177 ft | 472 kts | 118° |
| 2026-04-15 14:20 | 49.59897 | 12.19309 | 37198 ft | 472 kts | 118° |
| 2026-04-15 14:20 | 49.56404 | 12.27860 | 37208 ft | 472 kts | 118° |
| 2026-04-15 14:21 | 49.52905 | 12.36399 | 37202 ft | 471 kts | 118° |
| 2026-04-15 14:21 | 49.49406 | 12.44910 | 37210 ft | 470 kts | 118° |
| 2026-04-15 14:22 | 49.45906 | 12.53397 | 37202 ft | 470 kts | 118° |
| 2026-04-15 14:22 | 49.42399 | 12.61875 | 37219 ft | 469 kts | 118° |
| 2026-04-15 14:23 | 49.38906 | 12.70293 | 37203 ft | 467 kts | 118° |
| 2026-04-15 14:23 | 49.35818 | 12.78981 | 37205 ft | 461 kts | 107° |
| 2026-04-15 14:24 | 49.33572 | 12.88167 | 37198 ft | 460 kts | 105° |
| 2026-04-15 14:24 | 49.31339 | 12.97343 | 37203 ft | 460 kts | 105° |
| 2026-04-15 14:25 | 49.29086 | 13.06515 | 37201 ft | 460 kts | 106° |
| 2026-04-15 14:25 | 49.26821 | 13.15690 | 37210 ft | 461 kts | 106° |
| 2026-04-15 14:26 | 49.24545 | 13.24869 | 37210 ft | 462 kts | 106° |
| 2026-04-15 14:26 | 49.22178 | 13.34008 | 37206 ft | 463 kts | 108° |
| 2026-04-15 14:27 | 49.19723 | 13.43018 | 37201 ft | 461 kts | 108° |
| 2026-04-15 14:27 | 49.17271 | 13.52049 | 37196 ft | 459 kts | 108° |
| 2026-04-15 14:28 | 49.14828 | 13.61061 | 37196 ft | 459 kts | 108° |
| 2026-04-15 14:28 | 49.12378 | 13.70073 | 37198 ft | 459 kts | 108° |
| 2026-04-15 14:29 | 49.10320 | 13.77616 | 37200 ft | 459 kts | 108° |
| 2026-04-15 14:29 | 49.07871 | 13.86559 | 37210 ft | 460 kts | 108° |
| 2026-04-15 14:30 | 49.05395 | 13.95565 | 37218 ft | 461 kts | 108° |
| 2026-04-15 14:30 | 49.02909 | 14.04570 | 37224 ft | 461 kts | 108° |
| 2026-04-15 14:31 | 49.00417 | 14.13569 | 37224 ft | 461 kts | 108° |
| 2026-04-15 14:31 | 48.97914 | 14.22569 | 37229 ft | 462 kts | 109° |
| 2026-04-15 14:32 | 48.95364 | 14.31549 | 37222 ft | 464 kts | 112° |
| 2026-04-15 14:32 | 48.92070 | 14.40029 | 37220 ft | 468 kts | 120° |
| 2026-04-15 14:33 | 48.88480 | 14.48266 | 37220 ft | 467 kts | 120° |
| 2026-04-15 14:33 | 48.84905 | 14.56501 | 37210 ft | 467 kts | 120° |
| 2026-04-15 14:34 | 48.81324 | 14.64724 | 37215 ft | 467 kts | 120° |
| 2026-04-15 14:34 | 48.77751 | 14.72898 | 37206 ft | 464 kts | 120° |
| 2026-04-15 14:35 | 48.74178 | 14.81047 | 37201 ft | 464 kts | 120° |
| 2026-04-15 14:35 | 48.70598 | 14.89186 | 37202 ft | 464 kts | 120° |
| 2026-04-15 14:36 | 48.67012 | 14.97316 | 37201 ft | 464 kts | 120° |
| 2026-04-15 14:36 | 48.63425 | 15.05424 | 37199 ft | 464 kts | 120° |
| 2026-04-15 14:37 | 48.59831 | 15.13521 | 37194 ft | 464 kts | 120° |
| 2026-04-15 14:37 | 48.56233 | 15.21604 | 37197 ft | 464 kts | 120° |
| 2026-04-15 14:38 | 48.52626 | 15.29682 | 37202 ft | 464 kts | 120° |
| 2026-04-15 14:38 | 48.49014 | 15.37750 | 37200 ft | 464 kts | 121° |
| 2026-04-15 14:39 | 48.45431 | 15.45724 | 37204 ft | 462 kts | 121° |
| 2026-04-15 14:39 | 48.41799 | 15.53788 | 37202 ft | 462 kts | 121° |
| 2026-04-15 14:40 | 48.38210 | 15.61733 | 37203 ft | 462 kts | 121° |
| 2026-04-15 14:40 | 48.34565 | 15.69780 | 37200 ft | 462 kts | 122° |
| 2026-04-15 14:41 | 48.30971 | 15.77688 | 37196 ft | 461 kts | 122° |
| 2026-04-15 14:41 | 48.27353 | 15.85622 | 37191 ft | 460 kts | 122° |
| 2026-04-15 14:42 | 48.23736 | 15.93534 | 37180 ft | 460 kts | 122° |
| 2026-04-15 14:42 | 48.20113 | 16.01436 | 37179 ft | 459 kts | 122° |
| 2026-04-15 14:43 | 48.16487 | 16.09326 | 37166 ft | 460 kts | 123° |
| 2026-04-15 14:43 | 48.12852 | 16.17208 | 37176 ft | 460 kts | 123° |
| 2026-04-15 14:44 | 48.09211 | 16.25079 | 37172 ft | 460 kts | 123° |
| 2026-04-15 14:44 | 48.05561 | 16.32950 | 37184 ft | 461 kts | 123° |
| 2026-04-15 14:45 | 48.01899 | 16.40824 | 37183 ft | 462 kts | 123° |
| 2026-04-15 14:45 | 47.98226 | 16.48695 | 37198 ft | 462 kts | 123° |
| 2026-04-15 14:46 | 47.94544 | 16.56565 | 37195 ft | 463 kts | 124° |
| 2026-04-15 14:46 | 47.90845 | 16.64446 | 37191 ft | 464 kts | 124° |
| 2026-04-15 14:47 | 47.87137 | 16.72327 | 37201 ft | 465 kts | 124° |
| 2026-04-15 14:47 | 47.83420 | 16.80204 | 37192 ft | 465 kts | 124° |
| 2026-04-15 14:48 | 47.79704 | 16.88053 | 37186 ft | 463 kts | 124° |
| 2026-04-15 14:48 | 47.75986 | 16.95886 | 37186 ft | 464 kts | 124° |
| 2026-04-15 14:49 | 47.72264 | 17.03715 | 37187 ft | 464 kts | 124° |
| 2026-04-15 14:49 | 47.68734 | 17.11724 | 37186 ft | 464 kts | 120° |
| 2026-04-15 14:50 | 47.65483 | 17.19983 | 37181 ft | 464 kts | 120° |
| 2026-04-15 14:50 | 47.62205 | 17.28143 | 37176 ft | 464 kts | 120° |
| 2026-04-15 14:51 | 47.58864 | 17.36324 | 37179 ft | 464 kts | 120° |
| 2026-04-15 14:51 | 47.55512 | 17.44491 | 37180 ft | 464 kts | 121° |
| 2026-04-15 14:52 | 47.52152 | 17.52651 | 37184 ft | 464 kts | 121° |
| 2026-04-15 14:52 | 47.48783 | 17.60809 | 37187 ft | 465 kts | 121° |
| 2026-04-15 14:53 | 47.45409 | 17.68956 | 37177 ft | 465 kts | 121° |
| 2026-04-15 14:53 | 47.42028 | 17.77098 | 37183 ft | 465 kts | 121° |
| 2026-04-15 14:54 | 47.38635 | 17.85230 | 37172 ft | 465 kts | 123° |
| 2026-04-15 14:54 | 47.34979 | 17.93108 | 37172 ft | 465 kts | 124° |
| 2026-04-15 14:55 | 47.31314 | 18.00977 | 37172 ft | 466 kts | 124° |
| 2026-04-15 14:55 | 47.27642 | 18.08841 | 37185 ft | 466 kts | 125° |
| 2026-04-15 14:56 | 47.23959 | 18.16698 | 37172 ft | 466 kts | 125° |
| 2026-04-15 14:56 | 47.20267 | 18.24547 | 37178 ft | 467 kts | 125° |
| 2026-04-15 14:57 | 47.16569 | 18.32386 | 37171 ft | 467 kts | 125° |
| 2026-04-15 14:57 | 47.12867 | 18.40214 | 37184 ft | 467 kts | 126° |
| 2026-04-15 14:58 | 47.09157 | 18.48036 | 37169 ft | 467 kts | 126° |
| 2026-04-15 14:58 | 47.05440 | 18.55849 | 37172 ft | 467 kts | 126° |
| 2026-04-15 14:59 | 47.01717 | 18.63652 | 37176 ft | 467 kts | 126° |
| 2026-04-15 14:59 | 46.97987 | 18.71450 | 37172 ft | 467 kts | 126° |
| 2026-04-15 15:00 | 46.94251 | 18.79237 | 37176 ft | 468 kts | 126° |
| 2026-04-15 15:00 | 46.90506 | 18.87022 | 37169 ft | 468 kts | 126° |
| 2026-04-15 15:01 | 46.86778 | 18.94747 | 37174 ft | 468 kts | 126° |
| 2026-04-15 15:01 | 46.83023 | 19.02509 | 37178 ft | 468 kts | 126° |
| 2026-04-15 15:02 | 46.79264 | 19.10258 | 37166 ft | 468 kts | 127° |
| 2026-04-15 15:02 | 46.75496 | 19.18003 | 37174 ft | 468 kts | 127° |
| 2026-04-15 15:03 | 46.71718 | 19.25747 | 37169 ft | 468 kts | 127° |
| 2026-04-15 15:03 | 46.67940 | 19.33470 | 37178 ft | 468 kts | 127° |
| 2026-04-15 15:04 | 46.64152 | 19.41192 | 37167 ft | 469 kts | 127° |
| 2026-04-15 15:04 | 46.60355 | 19.48910 | 37160 ft | 469 kts | 127° |
| 2026-04-15 15:05 | 46.56554 | 19.56613 | 37160 ft | 469 kts | 127° |
| 2026-04-15 15:05 | 46.52747 | 19.64310 | 37174 ft | 469 kts | 127° |
| 2026-04-15 15:06 | 46.47037 | 19.75816 | 37170 ft | 466 kts | 127° |
| 2026-04-15 15:06 | 46.43240 | 19.83439 | 37153 ft | 467 kts | 128° |
| 2026-04-15 15:07 | 46.39432 | 19.91062 | 37160 ft | 467 kts | 128° |
| 2026-04-15 15:07 | 46.35623 | 19.98676 | 37159 ft | 467 kts | 128° |
| 2026-04-15 15:08 | 46.31904 | 20.06380 | 37158 ft | 467 kts | 126° |
| 2026-04-15 15:08 | 46.28238 | 20.14141 | 37159 ft | 467 kts | 126° |
| 2026-04-15 15:09 | 46.24547 | 20.21885 | 37160 ft | 468 kts | 126° |
| 2026-04-15 15:09 | 46.20843 | 20.29610 | 37163 ft | 468 kts | 126° |
| 2026-04-15 15:10 | 46.17251 | 20.37442 | 37159 ft | 469 kts | 120° |
| 2026-04-15 15:10 | 46.14605 | 20.46027 | 37150 ft | 469 kts | 109° |
| 2026-04-15 15:11 | 46.12791 | 20.55050 | 37148 ft | 469 kts | 107° |
| 2026-04-15 15:11 | 46.10998 | 20.64021 | 37141 ft | 469 kts | 107° |
| 2026-04-15 15:12 | 46.09186 | 20.73050 | 37138 ft | 469 kts | 107° |
| 2026-04-15 15:12 | 46.07368 | 20.82065 | 37134 ft | 469 kts | 107° |
| 2026-04-15 15:13 | 46.05539 | 20.91076 | 37131 ft | 469 kts | 107° |
| 2026-04-15 15:13 | 46.03701 | 21.00080 | 37133 ft | 469 kts | 107° |
| 2026-04-15 15:14 | 46.01855 | 21.09085 | 37133 ft | 469 kts | 107° |
| 2026-04-15 15:14 | 45.99999 | 21.18097 | 37134 ft | 469 kts | 107° |
| 2026-04-15 15:15 | 45.98139 | 21.27089 | 37134 ft | 470 kts | 107° |
| 2026-04-15 15:15 | 45.96269 | 21.36088 | 37135 ft | 470 kts | 107° |
| 2026-04-15 15:16 | 45.94394 | 21.45072 | 37136 ft | 469 kts | 107° |
| 2026-04-15 15:16 | 45.92829 | 21.52541 | 37134 ft | 469 kts | 107° |
| 2026-04-15 15:17 | 45.90634 | 21.62970 | 37126 ft | 469 kts | 108° |
| 2026-04-15 15:17 | 45.88739 | 21.71929 | 37119 ft | 469 kts | 108° |
| 2026-04-15 15:18 | 45.86837 | 21.80887 | 37118 ft | 469 kts | 108° |
| 2026-04-15 15:18 | 45.85238 | 21.88381 | 37116 ft | 469 kts | 108° |
| 2026-04-15 15:19 | 45.83339 | 21.97251 | 37112 ft | 468 kts | 108° |
| 2026-04-15 15:19 | 45.81421 | 22.06172 | 37108 ft | 468 kts | 108° |
| 2026-04-15 15:20 | 45.79495 | 22.15088 | 37104 ft | 468 kts | 108° |
| 2026-04-15 15:20 | 45.77565 | 22.23991 | 37105 ft | 468 kts | 108° |
| 2026-04-15 15:21 | 45.75627 | 22.32885 | 37104 ft | 468 kts | 108° |
| 2026-04-15 15:21 | 45.73681 | 22.41785 | 37108 ft | 468 kts | 108° |
| 2026-04-15 15:22 | 45.71728 | 22.50677 | 37108 ft | 468 kts | 108° |
| 2026-04-15 15:22 | 45.69767 | 22.59567 | 37106 ft | 469 kts | 108° |
| 2026-04-15 15:23 | 45.67798 | 22.68453 | 37106 ft | 469 kts | 108° |
| 2026-04-15 15:23 | 45.65822 | 22.77334 | 37106 ft | 469 kts | 108° |
| 2026-04-15 15:24 | 45.63838 | 22.86217 | 37110 ft | 469 kts | 108° |
| 2026-04-15 15:24 | 45.61846 | 22.95096 | 37112 ft | 470 kts | 108° |
| 2026-04-15 15:25 | 45.59845 | 23.03978 | 37116 ft | 470 kts | 109° |
| 2026-04-15 15:25 | 45.57836 | 23.12857 | 37119 ft | 470 kts | 109° |
| 2026-04-15 15:26 | 45.55820 | 23.21736 | 37120 ft | 470 kts | 108° |
| 2026-04-15 15:26 | 45.53798 | 23.30600 | 37118 ft | 470 kts | 109° |
| 2026-04-15 15:27 | 45.51771 | 23.39447 | 37129 ft | 469 kts | 109° |
| 2026-04-15 15:27 | 45.49735 | 23.48300 | 37127 ft | 470 kts | 109° |
| 2026-04-15 15:28 | 45.47694 | 23.57144 | 37135 ft | 470 kts | 109° |
| 2026-04-15 15:28 | 45.45645 | 23.65986 | 37142 ft | 470 kts | 109° |
| 2026-04-15 15:29 | 45.43601 | 23.74766 | 37141 ft | 470 kts | 109° |
| 2026-04-15 15:29 | 45.41537 | 23.83599 | 37144 ft | 470 kts | 109° |
| 2026-04-15 15:30 | 45.39466 | 23.92426 | 37148 ft | 470 kts | 109° |
| 2026-04-15 15:30 | 45.37389 | 24.01239 | 37150 ft | 470 kts | 109° |
| 2026-04-15 15:31 | 45.35304 | 24.10054 | 37154 ft | 470 kts | 109° |
| 2026-04-15 15:31 | 45.33214 | 24.18854 | 37153 ft | 470 kts | 109° |
| 2026-04-15 15:32 | 45.31118 | 24.27649 | 37157 ft | 470 kts | 109° |
| 2026-04-15 15:32 | 45.29013 | 24.36444 | 37159 ft | 470 kts | 109° |
| 2026-04-15 15:33 | 45.26900 | 24.45237 | 37159 ft | 470 kts | 109° |
| 2026-04-15 15:33 | 45.24783 | 24.54010 | 37154 ft | 469 kts | 109° |
| 2026-04-15 15:34 | 45.22664 | 24.62762 | 37152 ft | 469 kts | 109° |
| 2026-04-15 15:34 | 45.20537 | 24.71507 | 37153 ft | 469 kts | 110° |
| 2026-04-15 15:35 | 45.18407 | 24.80237 | 37153 ft | 469 kts | 110° |
| 2026-04-15 15:35 | 45.16270 | 24.88957 | 37151 ft | 469 kts | 110° |
| 2026-04-15 15:36 | 45.14124 | 24.97681 | 37156 ft | 469 kts | 110° |
| 2026-04-15 15:36 | 45.11972 | 25.06398 | 37158 ft | 469 kts | 110° |
| 2026-04-15 15:37 | 45.09827 | 25.15052 | 37159 ft | 470 kts | 110° |
| 2026-04-15 15:37 | 45.07656 | 25.23776 | 37164 ft | 470 kts | 110° |
| 2026-04-15 15:38 | 45.05478 | 25.32496 | 37168 ft | 470 kts | 110° |
| 2026-04-15 15:38 | 45.03293 | 25.41212 | 37170 ft | 471 kts | 110° |
| 2026-04-15 15:39 | 45.01096 | 25.49941 | 37176 ft | 471 kts | 110° |
| 2026-04-15 15:39 | 44.98891 | 25.58667 | 37179 ft | 472 kts | 110° |
| 2026-04-15 15:40 | 44.96681 | 25.67385 | 37179 ft | 472 kts | 110° |
| 2026-04-15 15:40 | 44.94462 | 25.76104 | 37183 ft | 472 kts | 110° |
| 2026-04-15 15:41 | 44.92235 | 25.84818 | 37183 ft | 472 kts | 110° |
| 2026-04-15 15:41 | 44.90003 | 25.93524 | 37185 ft | 472 kts | 110° |
| 2026-04-15 15:42 | 44.87763 | 26.02226 | 37177 ft | 472 kts | 110° |
| 2026-04-15 15:42 | 44.85517 | 26.10917 | 37178 ft | 472 kts | 110° |
| 2026-04-15 15:43 | 44.83266 | 26.19598 | 37182 ft | 472 kts | 111° |
| 2026-04-15 15:43 | 44.81024 | 26.28212 | 37181 ft | 472 kts | 111° |
| 2026-04-15 15:44 | 44.78760 | 26.36878 | 37176 ft | 472 kts | 111° |
| 2026-04-15 15:44 | 44.76476 | 26.45598 | 37177 ft | 472 kts | 111° |
| 2026-04-15 15:45 | 44.74218 | 26.54204 | 37177 ft | 472 kts | 111° |
| 2026-04-15 15:45 | 44.71842 | 26.62798 | 37178 ft | 472 kts | 115° |
| 2026-04-15 15:46 | 44.68747 | 26.70901 | 37176 ft | 470 kts | 124° |
| 2026-04-15 15:46 | 44.65196 | 26.78621 | 37177 ft | 470 kts | 124° |
| 2026-04-15 15:47 | 44.61679 | 26.86370 | 37178 ft | 471 kts | 124° |
| 2026-04-15 15:47 | 44.58150 | 26.94114 | 37181 ft | 471 kts | 124° |
| 2026-04-15 15:48 | 44.54609 | 27.01854 | 37183 ft | 471 kts | 124° |
| 2026-04-15 15:48 | 44.51061 | 27.09585 | 37185 ft | 472 kts | 124° |
| 2026-04-15 15:49 | 44.47508 | 27.17307 | 37186 ft | 472 kts | 124° |
| 2026-04-15 15:49 | 44.43948 | 27.25023 | 37188 ft | 472 kts | 124° |
| 2026-04-15 15:50 | 44.40383 | 27.32730 | 37193 ft | 472 kts | 124° |
| 2026-04-15 15:50 | 44.36813 | 27.40426 | 37194 ft | 472 kts | 124° |
| 2026-04-15 15:51 | 44.33241 | 27.48107 | 37205 ft | 471 kts | 124° |
| 2026-04-15 15:51 | 44.29663 | 27.55779 | 37196 ft | 471 kts | 125° |
| 2026-04-15 15:52 | 44.26083 | 27.63436 | 37203 ft | 471 kts | 125° |
| 2026-04-15 15:52 | 44.22496 | 27.71089 | 37201 ft | 471 kts | 125° |
| 2026-04-15 15:53 | 44.18930 | 27.78674 | 37206 ft | 471 kts | 125° |
| 2026-04-15 15:53 | 44.15334 | 27.86306 | 37202 ft | 471 kts | 125° |
| 2026-04-15 15:54 | 44.11706 | 27.93983 | 37210 ft | 472 kts | 125° |
| 2026-04-15 15:54 | 44.08095 | 28.01606 | 37213 ft | 472 kts | 125° |
| 2026-04-15 15:55 | 44.04479 | 28.09219 | 37213 ft | 472 kts | 125° |
| 2026-04-15 15:55 | 44.00854 | 28.16831 | 37220 ft | 472 kts | 125° |
| 2026-04-15 15:56 | 43.97245 | 28.24390 | 37220 ft | 473 kts | 125° |
| 2026-04-15 15:56 | 43.93606 | 28.31991 | 37223 ft | 473 kts | 126° |
| 2026-04-15 15:57 | 43.89958 | 28.39591 | 37222 ft | 474 kts | 126° |
| 2026-04-15 15:57 | 43.86299 | 28.47195 | 37228 ft | 474 kts | 126° |
| 2026-04-15 15:58 | 43.82634 | 28.54791 | 37230 ft | 474 kts | 126° |
| 2026-04-15 15:58 | 43.78962 | 28.62381 | 37237 ft | 475 kts | 126° |
| 2026-04-15 15:59 | 43.75280 | 28.69973 | 37225 ft | 475 kts | 126° |
| 2026-04-15 15:59 | 43.71588 | 28.77569 | 37229 ft | 476 kts | 126° |
| 2026-04-15 16:00 | 43.67770 | 28.85044 | 37233 ft | 476 kts | 128° |
| 2026-04-15 16:00 | 43.63899 | 28.92465 | 37229 ft | 477 kts | 128° |
| 2026-04-15 16:01 | 43.60021 | 28.99894 | 37233 ft | 477 kts | 128° |
| 2026-04-15 16:01 | 43.56122 | 29.07320 | 37238 ft | 478 kts | 128° |
| 2026-04-15 16:02 | 43.52214 | 29.14738 | 37242 ft | 478 kts | 128° |
| 2026-04-15 16:02 | 43.48325 | 29.22100 | 37239 ft | 478 kts | 128° |
| 2026-04-15 16:03 | 43.44377 | 29.29556 | 37243 ft | 479 kts | 128° |
| 2026-04-15 16:03 | 43.40476 | 29.36906 | 37245 ft | 479 kts | 128° |
| 2026-04-15 16:04 | 43.36541 | 29.44299 | 37236 ft | 479 kts | 128° |
| 2026-04-15 16:04 | 43.32601 | 29.51684 | 37237 ft | 479 kts | 128° |
| 2026-04-15 16:05 | 43.28657 | 29.59058 | 37233 ft | 479 kts | 128° |
| 2026-04-15 16:05 | 43.24710 | 29.66420 | 37234 ft | 479 kts | 128° |
| 2026-04-15 16:06 | 43.20757 | 29.73773 | 37236 ft | 479 kts | 128° |
| 2026-04-15 16:06 | 43.16800 | 29.81118 | 37235 ft | 479 kts | 128° |
| 2026-04-15 16:07 | 43.12843 | 29.88443 | 37231 ft | 478 kts | 128° |
| 2026-04-15 16:08 | 43.07567 | 29.98180 | 37216 ft | 478 kts | 129° |
| 2026-04-15 16:08 | 43.03600 | 30.05482 | 37218 ft | 478 kts | 129° |
| 2026-04-15 16:09 | 42.99630 | 30.12772 | 37222 ft | 478 kts | 129° |
| 2026-04-15 16:09 | 42.95659 | 30.20045 | 37220 ft | 478 kts | 129° |
| 2026-04-15 16:10 | 42.91677 | 30.27320 | 37213 ft | 478 kts | 129° |
| 2026-04-15 16:10 | 42.87689 | 30.34588 | 37213 ft | 479 kts | 129° |
| 2026-04-15 16:11 | 42.83693 | 30.41853 | 37216 ft | 479 kts | 129° |
| 2026-04-15 16:11 | 42.79689 | 30.49115 | 37212 ft | 480 kts | 129° |
| 2026-04-15 16:12 | 42.75828 | 30.56537 | 37212 ft | 482 kts | 120° |
| 2026-04-15 16:12 | 42.73411 | 30.65036 | 37210 ft | 484 kts | 102° |
| 2026-04-15 16:13 | 42.72421 | 30.74100 | 37212 ft | 485 kts | 97° |
| 2026-04-15 16:13 | 42.71507 | 30.83196 | 37206 ft | 486 kts | 97° |
| 2026-04-15 16:14 | 42.70580 | 30.92246 | 37214 ft | 487 kts | 97° |
| 2026-04-15 16:14 | 42.69635 | 31.01373 | 37230 ft | 488 kts | 97° |
| 2026-04-15 16:15 | 42.68681 | 31.10518 | 37217 ft | 489 kts | 98° |
| 2026-04-15 16:15 | 42.67719 | 31.19671 | 37228 ft | 490 kts | 98° |
| 2026-04-15 16:16 | 42.66749 | 31.28831 | 37227 ft | 490 kts | 98° |
| 2026-04-15 16:16 | 42.65771 | 31.37991 | 37222 ft | 488 kts | 98° |
| 2026-04-15 16:17 | 42.64791 | 31.47102 | 37218 ft | 488 kts | 98° |
| 2026-04-15 16:17 | 42.63800 | 31.56242 | 37212 ft | 489 kts | 98° |
| 2026-04-15 16:18 | 42.62802 | 31.65378 | 37214 ft | 489 kts | 98° |
| 2026-04-15 16:18 | 42.61797 | 31.74509 | 37212 ft | 489 kts | 98° |
| 2026-04-15 16:19 | 42.60785 | 31.83640 | 37205 ft | 489 kts | 98° |
| 2026-04-15 16:19 | 42.59764 | 31.92769 | 37203 ft | 489 kts | 98° |
| 2026-04-15 16:20 | 42.58737 | 32.01901 | 37202 ft | 490 kts | 98° |
| 2026-04-15 16:20 | 42.57718 | 32.11033 | 37204 ft | 490 kts | 98° |
| 2026-04-15 16:21 | 42.56674 | 32.20168 | 37198 ft | 490 kts | 98° |
| 2026-04-15 16:21 | 42.55621 | 32.29304 | 37196 ft | 490 kts | 98° |
| 2026-04-15 16:22 | 42.54561 | 32.38444 | 37201 ft | 491 kts | 98° |
| 2026-04-15 16:22 | 42.53493 | 32.47589 | 37211 ft | 491 kts | 98° |
| 2026-04-15 16:23 | 42.52418 | 32.56735 | 37203 ft | 492 kts | 98° |
| 2026-04-15 16:23 | 42.51335 | 32.65884 | 37203 ft | 492 kts | 98° |
| 2026-04-15 16:24 | 42.50243 | 32.75039 | 37203 ft | 492 kts | 98° |
| 2026-04-15 16:24 | 42.49152 | 32.84129 | 37204 ft | 492 kts | 98° |
| 2026-04-15 16:25 | 42.48047 | 32.93272 | 37205 ft | 492 kts | 98° |
| 2026-04-15 16:25 | 42.46933 | 33.02421 | 37202 ft | 492 kts | 98° |
| 2026-04-15 16:26 | 42.45813 | 33.11561 | 37203 ft | 492 kts | 98° |
| 2026-04-15 16:26 | 42.44685 | 33.20701 | 37202 ft | 492 kts | 99° |
| 2026-04-15 16:27 | 42.43547 | 33.29834 | 37183 ft | 492 kts | 99° |
| 2026-04-15 16:27 | 42.42403 | 33.38967 | 37187 ft | 492 kts | 99° |
| 2026-04-15 16:28 | 42.41250 | 33.48108 | 37205 ft | 493 kts | 99° |
| 2026-04-15 16:28 | 42.40091 | 33.57252 | 37203 ft | 493 kts | 99° |
| 2026-04-15 16:29 | 42.38924 | 33.66393 | 37203 ft | 493 kts | 99° |
| 2026-04-15 16:29 | 42.37749 | 33.75536 | 37205 ft | 493 kts | 99° |
| 2026-04-15 16:30 | 42.36567 | 33.84677 | 37207 ft | 494 kts | 99° |
| 2026-04-15 16:30 | 42.35377 | 33.93820 | 37208 ft | 494 kts | 99° |
| 2026-04-15 16:31 | 42.34184 | 34.02961 | 37200 ft | 494 kts | 99° |
| 2026-04-15 16:31 | 42.32983 | 34.12107 | 37207 ft | 494 kts | 99° |
| 2026-04-15 16:32 | 42.31775 | 34.21249 | 37210 ft | 494 kts | 99° |
| 2026-04-15 16:32 | 42.30558 | 34.30396 | 37210 ft | 495 kts | 99° |
| 2026-04-15 16:33 | 42.29334 | 34.39534 | 37208 ft | 495 kts | 99° |
| 2026-04-15 16:33 | 42.28100 | 34.48681 | 37222 ft | 495 kts | 99° |
| 2026-04-15 16:34 | 42.26858 | 34.57823 | 37226 ft | 495 kts | 99° |
| 2026-04-15 16:34 | 42.25617 | 34.66902 | 37224 ft | 495 kts | 99° |
| 2026-04-15 16:35 | 42.24361 | 34.76037 | 37219 ft | 495 kts | 99° |
| 2026-04-15 16:35 | 42.23098 | 34.85161 | 37220 ft | 495 kts | 99° |
| 2026-04-15 16:36 | 42.21825 | 34.94282 | 37228 ft | 495 kts | 99° |
| 2026-04-15 16:36 | 42.20544 | 35.03400 | 37231 ft | 495 kts | 99° |
| 2026-04-15 16:37 | 42.19257 | 35.12509 | 37232 ft | 494 kts | 99° |
| 2026-04-15 16:37 | 42.17964 | 35.21612 | 37249 ft | 494 kts | 99° |
| 2026-04-15 16:38 | 42.16663 | 35.30712 | 37251 ft | 494 kts | 100° |
| 2026-04-15 16:38 | 42.15354 | 35.39810 | 37244 ft | 494 kts | 100° |
| 2026-04-15 16:39 | 42.14039 | 35.48906 | 37253 ft | 495 kts | 100° |
| 2026-04-15 16:39 | 42.12720 | 35.58005 | 37251 ft | 495 kts | 100° |
| 2026-04-15 16:40 | 42.11403 | 35.67035 | 37251 ft | 494 kts | 100° |
| 2026-04-15 16:40 | 42.10071 | 35.76112 | 37245 ft | 494 kts | 100° |
| 2026-04-15 16:41 | 42.08730 | 35.85193 | 37248 ft | 494 kts | 100° |
| 2026-04-15 16:41 | 42.07383 | 35.94264 | 37247 ft | 494 kts | 100° |
| 2026-04-15 16:42 | 42.06029 | 36.03323 | 37256 ft | 494 kts | 100° |
| 2026-04-15 16:42 | 42.04668 | 36.12388 | 37250 ft | 494 kts | 100° |
| 2026-04-15 16:43 | 42.03299 | 36.21446 | 37248 ft | 494 kts | 100° |
| 2026-04-15 16:43 | 42.01923 | 36.30509 | 37249 ft | 494 kts | 100° |
| 2026-04-15 16:44 | 42.00539 | 36.39564 | 37255 ft | 495 kts | 100° |
| 2026-04-15 16:44 | 41.99148 | 36.48617 | 37271 ft | 495 kts | 100° |
| 2026-04-15 16:45 | 41.97749 | 36.57679 | 37265 ft | 495 kts | 100° |
| 2026-04-15 16:45 | 41.96343 | 36.66731 | 37265 ft | 495 kts | 100° |
| 2026-04-15 16:46 | 41.94929 | 36.75780 | 37265 ft | 495 kts | 101° |
| 2026-04-15 16:46 | 41.93521 | 36.84753 | 37265 ft | 493 kts | 101° |
| 2026-04-15 16:47 | 41.92102 | 36.93737 | 37259 ft | 492 kts | 101° |
| 2026-04-15 16:47 | 41.90709 | 37.02740 | 37264 ft | 492 kts | 97° |
| 2026-04-15 16:48 | 41.90275 | 37.11867 | 37261 ft | 489 kts | 89° |
| 2026-04-15 16:48 | 41.90157 | 37.21006 | 37257 ft | 491 kts | 89° |
| 2026-04-15 16:49 | 41.90021 | 37.30181 | 37287 ft | 493 kts | 89° |
| 2026-04-15 16:49 | 41.89874 | 37.39336 | 37263 ft | 490 kts | 89° |
| 2026-04-15 16:50 | 41.89721 | 37.48485 | 37262 ft | 491 kts | 89° |
| 2026-04-15 16:50 | 41.89561 | 37.57641 | 37263 ft | 490 kts | 89° |
| 2026-04-15 16:51 | 41.89393 | 37.66796 | 37271 ft | 491 kts | 89° |
| 2026-04-15 16:51 | 41.89218 | 37.75957 | 37270 ft | 491 kts | 89° |
| 2026-04-15 16:52 | 41.89035 | 37.85105 | 37265 ft | 490 kts | 89° |
| 2026-04-15 16:52 | 41.88847 | 37.94194 | 37273 ft | 490 kts | 89° |
| 2026-04-15 16:53 | 41.88650 | 38.03340 | 37272 ft | 490 kts | 89° |
| 2026-04-15 16:53 | 41.88446 | 38.12476 | 37268 ft | 490 kts | 89° |
| 2026-04-15 16:54 | 41.88236 | 38.21611 | 37264 ft | 489 kts | 89° |
| 2026-04-15 16:54 | 41.88018 | 38.30737 | 37264 ft | 489 kts | 89° |
| 2026-04-15 16:55 | 41.87793 | 38.39859 | 37267 ft | 489 kts | 89° |
| 2026-04-15 16:55 | 41.87560 | 38.48984 | 37261 ft | 489 kts | 89° |
| 2026-04-15 16:56 | 41.87320 | 38.58117 | 37263 ft | 490 kts | 89° |
| 2026-04-15 16:56 | 41.87073 | 38.67254 | 37265 ft | 490 kts | 89° |
| 2026-04-15 16:57 | 41.86819 | 38.76396 | 37268 ft | 491 kts | 89° |
| 2026-04-15 16:57 | 41.86557 | 38.85541 | 37280 ft | 491 kts | 89° |
| 2026-04-15 16:58 | 41.86287 | 38.94695 | 37275 ft | 491 kts | 90° |
| 2026-04-15 16:58 | 41.86010 | 39.03861 | 37282 ft | 492 kts | 90° |
| 2026-04-15 16:59 | 41.85726 | 39.12977 | 37280 ft | 487 kts | 90° |
| 2026-04-15 16:59 | 41.85487 | 39.20537 | 37278 ft | 488 kts | 90° |
| 2026-04-15 17:00 | 41.85191 | 39.29634 | 37278 ft | 488 kts | 90° |
| 2026-04-15 17:00 | 41.84889 | 39.38726 | 37281 ft | 488 kts | 90° |
| 2026-04-15 17:01 | 41.84580 | 39.47829 | 37284 ft | 488 kts | 90° |
| 2026-04-15 17:01 | 41.84266 | 39.56920 | 37279 ft | 488 kts | 90° |
| 2026-04-15 17:02 | 41.83941 | 39.66017 | 37300 ft | 488 kts | 90° |
| 2026-04-15 17:02 | 41.83612 | 39.75044 | 37274 ft | 484 kts | 90° |
| 2026-04-15 17:03 | 41.83278 | 39.84074 | 37280 ft | 485 kts | 90° |
| 2026-04-15 17:03 | 41.82935 | 39.93100 | 37277 ft | 485 kts | 90° |
| 2026-04-15 17:04 | 41.82588 | 40.02072 | 37269 ft | 485 kts | 91° |
| 2026-04-15 17:04 | 41.82232 | 40.11101 | 37264 ft | 485 kts | 91° |
| 2026-04-15 17:05 | 41.81868 | 40.20125 | 37271 ft | 485 kts | 91° |
| 2026-04-15 17:05 | 41.81496 | 40.29136 | 37272 ft | 482 kts | 91° |
| 2026-04-15 17:06 | 41.81119 | 40.38110 | 37275 ft | 483 kts | 91° |
| 2026-04-15 17:06 | 41.80735 | 40.47095 | 37278 ft | 483 kts | 91° |
| 2026-04-15 17:07 | 41.80344 | 40.56070 | 37278 ft | 483 kts | 91° |
| 2026-04-15 17:07 | 41.79946 | 40.65055 | 37275 ft | 483 kts | 91° |
| 2026-04-15 17:08 | 41.79522 | 40.74028 | 37276 ft | 483 kts | 91° |
| 2026-04-15 17:08 | 41.79078 | 40.83000 | 37295 ft | 483 kts | 91° |
| 2026-04-15 17:09 | 41.78631 | 40.91975 | 37284 ft | 483 kts | 91° |
| 2026-04-15 17:09 | 41.78178 | 41.00936 | 37274 ft | 481 kts | 91° |
| 2026-04-15 17:10 | 41.77720 | 41.09871 | 37276 ft | 481 kts | 91° |
| 2026-04-15 17:10 | 41.77258 | 41.18757 | 37279 ft | 481 kts | 91° |
| 2026-04-15 17:11 | 41.76786 | 41.27700 | 37279 ft | 481 kts | 91° |
| 2026-04-15 17:11 | 41.76306 | 41.36635 | 37275 ft | 481 kts | 92° |
| 2026-04-15 17:12 | 41.75574 | 41.50044 | 37298 ft | 481 kts | 92° |
| 2026-04-15 17:12 | 41.75078 | 41.58975 | 37299 ft | 481 kts | 92° |
| 2026-04-15 17:13 | 41.74575 | 41.67903 | 37294 ft | 481 kts | 92° |
| 2026-04-15 17:13 | 41.74065 | 41.76822 | 37291 ft | 480 kts | 92° |
| 2026-04-15 17:14 | 41.73549 | 41.85744 | 37293 ft | 481 kts | 92° |
| 2026-04-15 17:14 | 41.73119 | 41.93080 | 37292 ft | 481 kts | 92° |
| 2026-04-15 17:15 | 41.72748 | 41.99340 | 37291 ft | 481 kts | 92° |
| 2026-04-15 17:15 | 41.72212 | 42.08284 | 37294 ft | 482 kts | 92° |
| 2026-04-15 17:16 | 41.71669 | 42.17218 | 37295 ft | 481 kts | 92° |
| 2026-04-15 17:16 | 41.71123 | 42.26144 | 37282 ft | 481 kts | 92° |
| 2026-04-15 17:17 | 41.70564 | 42.35061 | 37269 ft | 480 kts | 92° |
| 2026-04-15 17:17 | 41.70004 | 42.43897 | 37269 ft | 479 kts | 92° |
| 2026-04-15 17:18 | 41.69431 | 42.52841 | 37262 ft | 479 kts | 92° |
| 2026-04-15 17:18 | 41.69144 | 42.57293 | 37098 ft | 481 kts | 92° |
| 2026-04-15 17:18 | 41.68857 | 42.61704 | 36864 ft | 483 kts | 92° |
| 2026-04-15 17:19 | 41.68565 | 42.66183 | 36604 ft | 484 kts | 92° |
| 2026-04-15 17:19 | 41.68266 | 42.70729 | 36348 ft | 485 kts | 92° |
| 2026-04-15 17:19 | 41.67972 | 42.75164 | 36041 ft | 486 kts | 92° |
| 2026-04-15 17:19 | 41.67668 | 42.79736 | 35385 ft | 489 kts | 92° |
| 2026-04-15 17:20 | 41.67368 | 42.84226 | 34544 ft | 495 kts | 92° |
| 2026-04-15 17:20 | 41.67053 | 42.88897 | 33628 ft | 498 kts | 92° |
| 2026-04-15 17:20 | 41.66739 | 42.93503 | 32869 ft | 497 kts | 92° |
| 2026-04-15 17:20 | 41.66427 | 42.98048 | 32070 ft | 498 kts | 92° |
| 2026-04-15 17:21 | 41.66110 | 43.02649 | 31360 ft | 496 kts | 92° |
| 2026-04-15 17:21 | 41.65793 | 43.07216 | 30818 ft | 491 kts | 92° |
| 2026-04-15 17:21 | 41.65477 | 43.11738 | 30203 ft | 487 kts | 92° |
| 2026-04-15 17:21 | 41.65163 | 43.16223 | 29601 ft | 482 kts | 92° |
| 2026-04-15 17:22 | 41.64849 | 43.20664 | 29009 ft | 477 kts | 91° |
| 2026-04-15 17:22 | 41.64536 | 43.25061 | 28438 ft | 472 kts | 91° |
| 2026-04-15 17:22 | 41.64228 | 43.29406 | 27868 ft | 468 kts | 91° |
| 2026-04-15 17:22 | 41.63920 | 43.33715 | 27304 ft | 463 kts | 91° |
| 2026-04-15 17:23 | 41.63613 | 43.37985 | 26739 ft | 460 kts | 91° |
| 2026-04-15 17:23 | 41.63307 | 43.42222 | 26174 ft | 457 kts | 91° |
| 2026-04-15 17:23 | 41.63001 | 43.46433 | 25621 ft | 454 kts | 91° |
| 2026-04-15 17:23 | 41.62695 | 43.50618 | 25062 ft | 451 kts | 91° |
| 2026-04-15 17:24 | 41.62392 | 43.54773 | 24496 ft | 448 kts | 91° |
| 2026-04-15 17:24 | 41.62090 | 43.58905 | 23944 ft | 445 kts | 91° |
| 2026-04-15 17:24 | 41.61787 | 43.63018 | 23333 ft | 442 kts | 91° |
| 2026-04-15 17:24 | 41.61486 | 43.67085 | 22796 ft | 438 kts | 91° |
| 2026-04-15 17:25 | 41.61187 | 43.71110 | 22242 ft | 434 kts | 91° |
| 2026-04-15 17:25 | 41.60889 | 43.75096 | 21702 ft | 429 kts | 91° |
| 2026-04-15 17:25 | 41.60594 | 43.79046 | 21157 ft | 425 kts | 92° |
| 2026-04-15 17:25 | 41.60301 | 43.82962 | 20617 ft | 422 kts | 92° |
| 2026-04-15 17:26 | 41.60009 | 43.86843 | 20079 ft | 418 kts | 93° |
| 2026-04-15 17:26 | 41.59719 | 43.90684 | 19546 ft | 414 kts | 93° |
| 2026-04-15 17:26 | 41.59430 | 43.94488 | 19013 ft | 410 kts | 94° |
| 2026-04-15 17:26 | 41.59142 | 43.98261 | 18478 ft | 406 kts | 94° |
| 2026-04-15 17:27 | 41.58855 | 44.01993 | 17921 ft | 401 kts | 94° |
| 2026-04-15 17:27 | 41.58570 | 44.05675 | 17404 ft | 396 kts | 94° |
| 2026-04-15 17:27 | 41.58288 | 44.09304 | 16893 ft | 390 kts | 94° |
| 2026-04-15 17:27 | 41.58008 | 44.12886 | 16391 ft | 385 kts | 95° |
| 2026-04-15 17:28 | 41.57731 | 44.16426 | 15895 ft | 381 kts | 95° |
| 2026-04-15 17:28 | 41.57456 | 44.19924 | 15401 ft | 377 kts | 95° |
| 2026-04-15 17:28 | 41.57169 | 44.23380 | 14909 ft | 372 kts | 97° |
| 2026-04-15 17:28 | 41.56732 | 44.26719 | 14438 ft | 369 kts | 99° |
| 2026-04-15 17:29 | 41.56291 | 44.30082 | 13947 ft | 366 kts | 99° |
| 2026-04-15 17:29 | 41.55859 | 44.33406 | 13444 ft | 361 kts | 99° |
| 2026-04-15 17:29 | 41.55427 | 44.36728 | 12733 ft | 364 kts | 99° |
| 2026-04-15 17:29 | 41.54997 | 44.40022 | 12306 ft | 358 kts | 99° |
| 2026-04-15 17:30 | 41.54569 | 44.43274 | 11855 ft | 353 kts | 99° |
| 2026-04-15 17:30 | 41.54145 | 44.46487 | 11400 ft | 349 kts | 99° |
| 2026-04-15 17:30 | 41.53728 | 44.49659 | 10930 ft | 345 kts | 100° |
| 2026-04-15 17:30 | 41.53316 | 44.52802 | 10500 ft | 342 kts | 100° |
| 2026-04-15 17:31 | 41.52912 | 44.55870 | 10327 ft | 329 kts | 100° |
| 2026-04-15 17:31 | 41.52524 | 44.58815 | 10200 ft | 316 kts | 100° |
| 2026-04-15 17:31 | 41.52147 | 44.61664 | 9883 ft | 310 kts | 100° |
| 2026-04-15 17:31 | 41.51775 | 44.64475 | 9550 ft | 304 kts | 100° |
| 2026-04-15 17:32 | 41.51410 | 44.67216 | 9411 ft | 300 kts | 100° |
| 2026-04-15 17:32 | 41.51044 | 44.69965 | 9227 ft | 302 kts | 100° |
| 2026-04-15 17:32 | 41.50673 | 44.72735 | 8882 ft | 303 kts | 100° |
| 2026-04-15 17:32 | 41.50302 | 44.75486 | 8534 ft | 300 kts | 100° |
| 2026-04-15 17:33 | 41.49934 | 44.78213 | 8183 ft | 296 kts | 100° |
| 2026-04-15 17:33 | 41.49576 | 44.80862 | 7858 ft | 293 kts | 100° |
| 2026-04-15 17:33 | 41.49217 | 44.83514 | 7520 ft | 289 kts | 100° |
| 2026-04-15 17:33 | 41.48861 | 44.86136 | 7188 ft | 286 kts | 100° |
| 2026-04-15 17:34 | 41.48508 | 44.88730 | 6853 ft | 283 kts | 100° |
| 2026-04-15 17:34 | 41.48159 | 44.91299 | 6530 ft | 280 kts | 100° |
| 2026-04-15 17:34 | 41.47813 | 44.93838 | 6199 ft | 277 kts | 100° |
| 2026-04-15 17:34 | 41.47471 | 44.96345 | 5870 ft | 273 kts | 100° |
| 2026-04-15 17:35 | 41.47133 | 44.98822 | 5600 ft | 269 kts | 100° |
| 2026-04-15 17:35 | 41.46806 | 45.01221 | 5432 ft | 259 kts | 100° |
| 2026-04-15 17:35 | 41.46482 | 45.03585 | 5009 ft | 259 kts | 99° |
| 2026-04-15 17:35 | 41.46482 | 45.05947 | 4627 ft | 252 kts | 71° |
| 2026-04-15 17:36 | 41.47300 | 45.07908 | 4511 ft | 241 kts | 45° |
| 2026-04-15 17:36 | 41.48450 | 45.09533 | 4495 ft | 241 kts | 40° |
| 2026-04-15 17:36 | 41.49642 | 45.11087 | 4496 ft | 240 kts | 39° |
| 2026-04-15 17:36 | 41.50942 | 45.12314 | 4431 ft | 218 kts | 10° |
| 2026-04-15 17:37 | 41.52358 | 45.12388 | 4339 ft | 195 kts | 341° |
| 2026-04-15 17:37 | 41.53523 | 45.11732 | 4302 ft | 169 kts | 325° |
| 2026-04-15 17:37 | 41.54395 | 45.10880 | 4218 ft | 142 kts | 318° |
| 2026-04-15 17:37 | 41.55070 | 45.10086 | 4150 ft | 124 kts | 316° |
| 2026-04-15 17:38 | 41.55711 | 45.09288 | 4090 ft | 125 kts | 315° |
| 2026-04-15 17:38 | 41.56344 | 45.08490 | 4037 ft | 126 kts | 315° |
| 2026-04-15 17:38 | 41.56981 | 45.07685 | 3924 ft | 125 kts | 315° |
| 2026-04-15 17:38 | 41.57616 | 45.06875 | 3817 ft | 130 kts | 315° |
| 2026-04-15 17:39 | 41.58271 | 45.06009 | 3681 ft | 132 kts | 314° |
| 2026-04-15 17:39 | 41.58917 | 45.05169 | 3541 ft | 128 kts | 315° |
| 2026-04-15 17:39 | 41.59564 | 45.04355 | 3226 ft | 132 kts | 316° |
| 2026-04-15 17:39 | 41.60245 | 45.03512 | 3052 ft | 133 kts | 316° |
| 2026-04-15 17:40 | 41.60904 | 45.02672 | 2950 ft | 128 kts | 315° |
| 2026-04-15 17:40 | 41.61539 | 45.01845 | 2750 ft | 127 kts | 316° |
| 2026-04-15 17:40 | 41.62195 | 45.01061 | 2518 ft | 128 kts | 319° |
| 2026-04-15 17:40 | 41.62848 | 45.00281 | 2399 ft | 127 kts | 317° |
| 2026-04-15 17:41 | 41.63476 | 44.99457 | 2169 ft | 125 kts | 315° |
| 2026-04-15 17:41 | 41.64087 | 44.98654 | 2007 ft | 123 kts | 316° |
| 2026-04-15 17:41 | 41.64727 | 44.97857 | 1880 ft | 128 kts | 317° |
| 2026-04-15 17:41 | 41.65378 | 44.97034 | 1684 ft | 129 kts | 318° |
| 2026-04-15 17:42 | 41.66016 | 44.96245 | 1541 ft | 118 kts | 317° |
| 2026-04-15 17:42 | 41.66525 | 44.95609 | 1543 ft | 74 kts | 316° |
| 2026-04-15 17:42 | 41.66797 | 44.95261 | 1553 ft | 42 kts | 316° |
| 2026-04-15 17:42 | 41.66884 | 44.95180 | 1557 ft | 9 kts | 2° |
| 2026-04-15 17:43 | 41.66945 | 44.95249 | 1559 ft | 14 kts | 45° |
| 2026-04-15 17:43 | 41.67016 | 44.95342 | 1561 ft | 15 kts | 44° |
| 2026-04-15 17:43 | 41.67097 | 44.95445 | 1559 ft | 18 kts | 43° |
| 2026-04-15 17:43 | 41.67193 | 44.95562 | 1559 ft | 20 kts | 42° |
| 2026-04-15 17:44 | 41.67237 | 44.95693 | 1558 ft | 13 kts | 117° |
| 2026-04-15 17:44 | 41.67164 | 44.95772 | 1556 ft | 16 kts | 162° |
| 2026-04-15 17:44 | 41.67077 | 44.95868 | 1554 ft | 18 kts | 135° |
| 2026-04-15 17:44 | 41.66977 | 44.96004 | 1550 ft | 23 kts | 134° |
| 2026-04-15 17:45 | 41.66898 | 44.96165 | 1543 ft | 19 kts | 136° |
| 2026-04-15 17:45 | 41.66845 | 44.96262 | 1544 ft | 6 kts | 70° |
| 2026-04-15 17:45 | 41.66877 | 44.96306 | 1544 ft | 5 kts | 40° |
| 2026-04-15 17:45 | 41.66890 | 44.96320 | 1535 ft | 0 kts | 38° |
| 2026-04-15 17:46 | 41.66893 | 44.96323 | 1535 ft | 0 kts | 39° |